Time;durP1;ratioP1;P1;durP2;ratioP2;P2;SDS_P1;SDS_P2;PMS_P1;PMS_P2;Temp;Humidity;BMP_temperature;BMP_pressure;BME280_temperature;BME280_humidity;BME280_pressure;Samples;Min_cycle;Max_cycle;Signal;HPM_P1;HPM_P2
2022/05/16 00:00:51;;;;;;;13.38;10.23;;;;;;;15.49;97.23;97289.56;5026172;28;20350;-67
2022/05/16 00:03:17;;;;;;;12.80;9.48;;;;;;;15.49;97.32;97295.13;5026443;28;20050;-67
2022/05/16 00:05:44;;;;;;;12.90;9.55;;;;;;;15.52;96.95;97294.38;5008629;28;20064;-67
2022/05/16 00:08:11;;;;;;;12.27;9.77;;;;;;;15.33;98.19;97297.50;5026232;28;20054;-68
2022/05/16 00:10:37;;;;;;;13.75;9.68;;;;;;;14.98;97.89;97236.00;5026499;28;20061;-68
2022/05/16 00:13:04;;;;;;;11.20;9.00;;;;;;;14.80;97.36;97221.19;5026563;28;20052;-67
2022/05/16 00:15:31;;;;;;;11.15;9.68;;;;;;;15.26;98.00;97286.28;5026048;28;20064;-68
2022/05/16 00:17:58;;;;;;;13.65;10.02;;;;;;;15.23;98.16;97286.28;5008571;28;20046;-67
2022/05/16 00:20:24;;;;;;;12.30;9.25;;;;;;;15.22;98.22;97288.28;5026015;28;20056;-67
2022/05/16 00:22:51;;;;;;;12.50;9.70;;;;;;;15.22;97.21;97285.50;5026007;28;20057;-68
2022/05/16 00:25:18;;;;;;;13.63;9.82;;;;;;;14.90;97.13;97256.69;5025670;28;20053;-67
2022/05/16 00:27:46;;;;;;;13.23;10.52;;;;;;;15.06;97.48;97293.41;5026502;28;20057;-69
2022/05/16 00:30:17;;;;;;;10.75;9.00;;;;;;;14.50;98.95;97237.38;5026290;28;20059;-68
2022/05/16 00:32:45;;;;;;;15.02;10.07;;;;;;;14.84;99.46;97291.72;5026147;28;20058;-69
2022/05/16 00:35:12;;;;;;;12.23;9.82;;;;;;;14.40;99.38;97215.84;5026075;28;20056;-67
2022/05/16 00:37:39;;;;;;;13.27;10.05;;;;;;;13.91;99.66;97165.41;5007956;28;20103;-69
2022/05/16 00:40:08;;;;;;;16.73;11.02;;;;;;;14.79;100.00;97300.47;5007967;28;20500;-68
2022/05/16 00:42:34;;;;;;;13.45;10.90;;;;;;;14.76;99.75;97295.69;5025379;28;20558;-68
2022/05/16 00:45:02;;;;;;;15.00;10.35;;;;;;;14.64;100.00;97288.44;5025530;28;20064;-69
2022/05/16 00:47:29;;;;;;;17.05;10.05;;;;;;;13.57;100.00;97129.41;5025624;28;20053;-69
2022/05/16 00:49:56;;;;;;;18.75;10.82;;;;;;;14.53;100.00;97303.50;5007807;28;20046;-69
2022/05/16 00:52:34;;;;;;;14.63;9.90;;;;;;;14.29;100.00;97267.94;5025550;28;20606;-68
2022/05/16 00:55:08;;;;;;;20.20;10.32;;;;;;;14.04;100.00;97216.78;5007891;28;20062;-65
2022/05/16 00:57:37;;;;;;;;;;;;;;;14.53;100.00;97295.13;5025794;28;20072;-65
2022/05/16 01:00:15;;;;;;;14.05;9.93;;;;;;;14.34;100.00;97301.00;5009697;28;19932;-66
2022/05/16 01:05:33;;;;;;;17.25;10.95;;;;;;;14.41;100.00;97292.69;5005503;28;20562;-66
2022/05/16 01:08:10;;;;;;;14.82;10.40;;;;;;;14.37;100.00;97289.09;5005592;28;20504;-66
2022/05/16 01:10:36;;;;;;;12.20;9.88;;;;;;;14.34;100.00;97295.44;5005441;28;20133;-65
2022/05/16 01:13:04;;;;;;;14.82;11.10;;;;;;;13.69;100.00;97187.53;5004410;28;20046;-66
2022/05/16 01:15:36;;;;;;;16.92;10.63;;;;;;;14.24;100.00;97271.06;5005105;28;20049;-66
2022/05/16 01:18:05;;;;;;;13.40;9.77;;;;;;;14.26;100.00;97268.69;4988243;28;20109;-66
2022/05/16 01:20:45;;;;;;;16.77;11.65;;;;;;;14.36;100.00;97284.69;5005017;28;20065;-66
2022/05/16 01:23:16;;;;;;;13.20;9.88;;;;;;;14.09;100.00;97238.72;5004933;28;20064;-66
2022/05/16 01:25:43;;;;;;;15.25;10.40;;;;;;;14.27;100.00;97273.91;5004903;28;20053;-66
2022/05/16 01:28:09;;;;;;;14.18;10.95;;;;;;;14.36;100.00;97293.06;5005035;28;20413;-65
2022/05/16 01:30:41;;;;;;;10.85;9.15;;;;;;;14.32;100.00;97269.97;5005032;28;20050;-65
2022/05/16 01:33:08;;;;;;;14.95;10.75;;;;;;;14.14;100.00;97280.94;4987430;28;20087;-65
2022/05/16 01:35:35;;;;;;;16.25;10.35;;;;;;;13.62;100.00;97215.31;5003563;28;20061;-66
2022/05/16 01:38:21;;;;;;;13.15;10.07;;;;;;;13.77;100.00;97224.56;5004943;28;20065;-65
2022/05/16 01:40:51;;;;;;;17.48;11.18;;;;;;;14.19;100.00;97288.16;5003107;28;20089;-65
2022/05/16 01:43:19;;;;;;;14.52;10.90;;;;;;;13.69;100.00;97215.38;5004917;28;20053;-65
2022/05/16 01:45:47;;;;;;;15.98;11.00;;;;;;;14.16;100.00;97283.34;5005117;28;20061;-66
2022/05/16 01:48:15;;;;;;;16.20;10.60;;;;;;;14.18;100.00;97283.78;5004904;28;20046;-67
2022/05/16 01:50:44;;;;;;;13.57;10.77;;;;;;;14.18;100.00;97281.75;5004367;28;20080;-65
2022/05/16 01:53:12;;;;;;;14.05;10.80;;;;;;;13.58;100.00;97197.78;5004710;28;20500;-65
2022/05/16 01:55:39;;;;;;;12.95;9.98;;;;;;;14.08;100.00;97287.28;5004647;28;20050;-65
2022/05/16 01:58:06;;;;;;;13.38;9.77;;;;;;;14.03;100.00;97279.28;5004158;28;20045;-66
2022/05/16 02:00:34;;;;;;;13.70;10.70;;;;;;;13.33;100.00;97185.66;5022542;28;20053;-66
2022/05/16 02:03:02;;;;;;;15.05;11.50;;;;;;;13.91;100.00;97265.66;5023931;28;20477;-66
2022/05/16 02:05:29;;;;;;;16.45;11.15;;;;;;;13.32;100.00;97175.72;5010232;28;20066;-66
2022/05/16 02:07:56;;;;;;;17.50;11.98;;;;;;;14.03;100.00;97279.28;4986676;28;20049;-65
2022/05/16 02:10:24;;;;;;;15.27;11.27;;;;;;;13.99;100.00;97279.25;4986964;28;20049;-65
2022/05/16 02:12:53;;;;;;;16.52;11.50;;;;;;;13.88;100.00;97274.78;5004583;28;20062;-65
2022/05/16 02:15:23;;;;;;;14.48;10.50;;;;;;;13.96;100.00;97273.66;5004342;28;20555;-65
2022/05/16 02:17:50;;;;;;;14.20;10.30;;;;;;;13.92;100.00;97289.53;4986830;28;20064;-64
2022/05/16 02:20:17;;;;;;;14.93;10.98;;;;;;;13.86;100.00;97286.31;4986568;28;20046;-64
2022/05/16 02:25:32;;;;;;;11.60;9.68;;;;;;;13.93;100.00;97274.41;5004553;28;20064;-63
2022/05/16 02:27:59;;;;;;;15.95;12.20;;;;;;;13.66;100.00;97234.81;4986236;28;20054;-65
2022/05/16 02:30:26;;;;;;;14.38;10.57;;;;;;;13.90;100.00;97266.81;4986476;28;20049;-63
2022/05/16 02:32:53;;;;;;;15.13;10.55;;;;;;;13.38;100.00;97204.78;5003926;28;20104;-63
2022/05/16 02:35:20;;;;;;;13.38;10.80;;;;;;;13.88;100.00;97283.16;4986071;28;20073;-64
2022/05/16 02:37:47;;;;;;;18.73;12.25;;;;;;;13.88;100.00;97283.16;4986349;28;20058;-63
2022/05/16 02:40:13;;;;;;;15.25;10.95;;;;;;;13.66;100.00;97277.38;5004561;28;20838;-63
2022/05/16 02:42:40;;;;;;;17.02;11.45;;;;;;;12.73;100.00;97145.34;5004031;28;20065;-64
2022/05/16 02:45:08;;;;;;;15.23;11.68;;;;;;;13.56;100.00;97278.09;5003569;28;20505;-63
2022/05/16 02:47:35;;;;;;;14.75;11.38;;;;;;;13.59;100.00;97288.44;4986403;28;20058;-64
2022/05/16 02:50:03;;;;;;;14.30;11.23;;;;;;;13.57;100.00;97281.69;4990463;28;20104;-64
2022/05/16 02:52:30;;;;;;;16.58;11.65;;;;;;;13.24;100.00;97242.81;4990170;28;20260;-64
2022/05/16 02:55:00;;;;;;;16.73;12.10;;;;;;;13.43;100.00;97262.88;5008143;28;20049;-63
2022/05/16 02:57:28;;;;;;;19.17;12.68;;;;;;;13.10;100.00;97204.50;5007323;28;20575;-63
2022/05/16 02:59:56;;;;;;;18.75;13.50;;;;;;;13.66;100.00;97282.97;5002868;28;20068;-63
2022/05/16 03:02:23;;;;;;;17.33;12.82;;;;;;;12.81;100.00;97158.13;5027534;28;20072;-65
2022/05/16 03:04:50;;;;;;;18.98;13.13;;;;;;;13.61;100.00;97290.84;5009934;28;20053;-64
2022/05/16 03:07:18;;;;;;;19.02;13.85;;;;;;;13.51;100.00;97256.16;5027545;28;20053;-64
2022/05/16 03:09:46;;;;;;;15.93;12.05;;;;;;;13.78;100.00;97289.41;5027128;28;20053;-64
2022/05/16 03:12:13;;;;;;;18.42;11.80;;;;;;;13.80;100.00;97295.41;5009257;28;20447;-64
2022/05/16 03:14:40;;;;;;;14.13;11.70;;;;;;;13.68;100.00;97290.94;5009595;28;20049;-63
2022/05/16 03:17:07;;;;;;;13.13;10.50;;;;;;;13.60;100.00;97284.50;5009328;28;20053;-64
2022/05/16 03:19:35;;;;;;;13.60;10.90;;;;;;;13.65;100.00;97298.06;5026727;28;20136;-63
2022/05/16 03:22:04;;;;;;;17.08;12.43;;;;;;;13.40;100.00;97252.50;5027144;28;20049;-64
2022/05/16 03:24:32;;;;;;;13.93;11.23;;;;;;;13.76;100.00;97294.56;5009584;28;20045;-63
2022/05/16 03:26:59;;;;;;;16.33;11.38;;;;;;;13.05;100.00;97190.97;5027153;28;20069;-63
2022/05/16 03:29:26;;;;;;;15.48;10.85;;;;;;;13.04;100.00;97236.63;5027039;28;20061;-64
2022/05/16 03:31:54;;;;;;;15.15;11.02;;;;;;;13.60;100.00;97301.22;5009209;28;20491;-63
2022/05/16 03:34:21;;;;;;;16.70;12.25;;;;;;;13.64;100.00;97302.03;5009040;28;20061;-63
2022/05/16 03:36:48;;;;;;;14.80;11.52;;;;;;;12.13;100.00;97049.44;5008878;28;20535;-64
2022/05/16 03:42:02;;;;;;;17.23;11.93;;;;;;;14.00;98.73;97310.69;5027118;28;20050;-64
2022/05/16 03:44:29;;;;;;;15.43;11.77;;;;;;;13.43;99.27;97226.72;5026688;28;20050;-64
2022/05/16 03:46:55;;;;;;;17.23;12.57;;;;;;;13.75;98.42;97246.44;5008856;28;20101;-63
2022/05/16 03:49:22;;;;;;;17.85;13.25;;;;;;;13.66;97.11;97238.41;5008621;28;20053;-63
2022/05/16 03:51:49;;;;;;;20.33;13.93;;;;;;;14.33;95.82;97319.72;5008731;28;20057;-64
2022/05/16 03:54:17;;;;;;;19.08;13.07;;;;;;;14.51;95.38;97333.78;5008742;28;20065;-63
2022/05/16 03:56:43;;;;;;;19.40;12.88;;;;;;;14.39;94.53;97281.13;5026687;28;20065;-63
2022/05/16 03:59:11;;;;;;;19.63;13.20;;;;;;;14.68;93.95;97321.94;5018718;28;20112;-63
2022/05/16 04:01:39;;;;;;;18.02;13.00;;;;;;;14.61;95.47;97310.72;5007380;28;20079;-63
2022/05/16 04:04:10;;;;;;;15.50;11.35;;;;;;;14.41;97.08;97278.75;5006437;28;20061;-63
2022/05/16 04:06:37;;;;;;;17.40;12.52;;;;;;;14.50;96.55;97299.53;5006351;28;20050;-63
2022/05/16 04:09:04;;;;;;;15.45;11.68;;;;;;;14.90;95.49;97301.31;4989131;28;20093;-63
2022/05/16 04:11:31;;;;;;;13.90;11.57;;;;;;;15.24;95.19;97326.97;5006584;28;20066;-63
2022/05/16 04:13:58;;;;;;;15.15;10.73;;;;;;;15.38;94.46;97319.44;5006445;28;20139;-63
2022/05/16 04:16:24;;;;;;;14.73;11.27;;;;;;;15.21;92.41;97271.94;4988794;28;20053;-63
2022/05/16 04:18:52;;;;;;;15.25;10.90;;;;;;;15.74;91.71;97329.50;4988558;28;20551;-63
2022/05/16 04:21:19;;;;;;;13.55;10.60;;;;;;;15.71;91.64;97335.88;4989077;28;20081;-63
2022/05/16 04:23:45;;;;;;;13.68;10.50;;;;;;;15.77;91.16;97333.50;5006278;28;20072;-63
2022/05/16 04:26:12;;;;;;;19.33;13.10;;;;;;;15.31;91.61;97296.25;5006330;28;20053;-62
2022/05/16 04:28:39;;;;;;;20.48;15.05;;;;;;;15.35;92.26;97336.94;5006037;28;20054;-63
2022/05/16 04:31:06;;;;;;;20.27;13.00;;;;;;;14.50;93.31;97276.41;5006042;28;20184;-64
2022/05/16 04:33:34;;;;;;;21.40;14.10;;;;;;;15.47;92.01;97335.81;5005731;28;20053;-63
2022/05/16 04:36:01;;;;;;;20.08;12.95;;;;;;;15.72;91.59;97342.25;5004968;28;20053;-64
2022/05/16 04:38:28;;;;;;;15.80;12.50;;;;;;;15.92;90.40;97341.50;5006376;28;20061;-62
2022/05/16 04:43:41;;;;;;;20.30;12.95;;;;;;;16.09;89.55;97315.53;5005575;28;20053;-64
2022/05/16 04:46:08;;;;;;;20.70;12.85;;;;;;;16.49;87.69;97343.09;5005580;28;20076;-63
2022/05/16 04:48:35;;;;;;;18.00;12.98;;;;;;;16.55;87.99;97347.09;5005166;28;20562;-64
2022/05/16 04:51:02;;;;;;;20.33;12.45;;;;;;;16.41;86.96;97305.13;5005485;28;20336;-63
2022/05/16 04:53:29;;;;;;;20.95;14.00;;;;;;;16.75;86.61;97332.66;5005499;28;20057;-62
2022/05/16 04:55:56;;;;;;;17.98;12.60;;;;;;;16.87;87.16;97346.22;5005428;28;20057;-64
2022/05/16 04:58:23;;;;;;;21.52;13.38;;;;;;;16.91;87.12;97333.03;5004269;28;20058;-63
2022/05/16 05:00:49;;;;;;;25.98;13.02;;;;;;;16.73;86.53;97284.69;5023830;28;20053;-63
2022/05/16 05:03:16;;;;;;;22.92;12.35;;;;;;;16.62;86.59;97234.41;5007327;28;20053;-62
2022/05/16 05:05:43;;;;;;;14.13;11.10;;;;;;;17.49;85.86;97333.19;5025255;28;20057;-63
2022/05/16 05:08:10;;;;;;;14.25;11.73;;;;;;;17.63;84.76;97328.31;5007094;28;20057;-64
2022/05/16 05:16:15;;;;;;;14.68;12.18;;;;;;;18.02;83.41;97333.66;5025392;28;20053;-63
2022/05/16 05:18:43;;;;;;;15.88;11.68;;;;;;;18.12;83.75;97327.16;5007008;28;20054;-63
2022/05/16 05:21:10;;;;;;;15.48;12.25;;;;;;;18.34;83.72;97327.78;5006967;28;20059;-64
2022/05/16 05:23:39;;;;;;;11.55;10.23;;;;;;;18.60;82.69;97325.19;5006889;28;20072;-63
2022/05/16 05:26:10;;;;;;;17.15;12.50;;;;;;;18.42;81.64;97293.69;5012182;28;20054;-64
2022/05/16 05:28:38;;;;;;;15.00;11.43;;;;;;;18.37;80.88;97263.22;5005003;28;20061;-64
2022/05/16 05:31:11;;;;;;;17.15;11.50;;;;;;;18.87;80.65;97334.53;5005098;28;20060;-64
2022/05/16 05:33:38;;;;;;;20.38;11.80;;;;;;;18.51;81.21;97260.31;5004987;28;20045;-64
2022/05/16 05:36:05;;;;;;;22.70;12.27;;;;;;;19.11;80.65;97341.84;5004850;28;20057;-64
2022/05/16 05:38:32;;;;;;;21.77;11.90;;;;;;;18.75;81.33;97303.34;5004659;28;20061;-63
2022/05/16 05:40:58;;;;;;;16.13;12.82;;;;;;;19.01;81.77;97339.97;5004913;28;20065;-63
2022/05/16 05:43:25;;;;;;;16.50;12.30;;;;;;;18.97;80.92;97293.47;4986667;28;20053;-66
2022/05/16 05:45:52;;;;;;;16.92;13.30;;;;;;;19.47;79.73;97348.66;4997742;28;20053;-63
2022/05/16 05:48:23;;;;;;;15.35;11.63;;;;;;;19.55;80.13;97341.72;4986624;28;20045;-59
2022/05/16 05:50:50;;;;;;;13.88;11.23;;;;;;;19.44;79.09;97300.94;5003140;28;20056;-60
2022/05/16 05:53:16;;;;;;;15.40;12.50;;;;;;;20.02;78.63;97330.59;5003460;28;20090;-66
2022/05/16 05:55:43;;;;;;;14.63;11.85;;;;;;;20.12;77.44;97329.66;5002194;28;20064;-62
2022/05/16 05:58:09;;;;;;;14.05;11.48;;;;;;;20.15;76.84;97295.06;4994090;28;20104;-64
2022/05/16 06:00:36;;;;;;;15.10;11.73;;;;;;;20.49;76.09;97321.00;4994743;28;20381;-65
2022/05/16 06:03:03;;;;;;;16.63;12.02;;;;;;;20.76;75.35;97330.19;5003711;28;20081;-69
2022/05/16 06:05:31;;;;;;;14.02;10.50;;;;;;;20.90;74.74;97329.91;4996578;28;20053;-65
2022/05/16 06:07:57;;;;;;;14.77;12.00;;;;;;;20.80;74.83;97336.56;5004064;28;20440;-65
2022/05/16 06:10:24;;;;;;;13.23;11.20;;;;;;;20.95;75.13;97332.22;5002986;28;20057;-63
2022/05/16 06:12:52;;;;;;;19.75;12.60;;;;;;;21.24;74.22;97333.31;5003108;28;20046;-62
2022/05/16 06:15:19;;;;;;;12.63;11.32;;;;;;;21.40;73.65;97332.59;5003080;28;20054;-61
2022/05/16 06:17:46;;;;;;;15.55;11.52;;;;;;;21.32;72.90;97283.22;5002809;28;20060;-62
2022/05/16 06:20:14;;;;;;;13.70;12.15;;;;;;;21.81;72.63;97330.91;5002589;28;20127;-61
2022/05/16 06:22:41;;;;;;;15.80;11.30;;;;;;;21.99;71.69;97334.09;5002511;28;20500;-65
2022/05/16 06:25:33;;;;;;;13.27;10.98;;;;;;;21.83;71.79;97325.59;5003039;28;20517;-60
2022/05/16 06:28:16;;;;;;;14.32;11.07;;;;;;;22.01;71.69;97326.00;5001343;28;20082;-59
2022/05/16 06:30:47;;;;;;;17.23;11.93;;;;;;;22.15;70.85;97330.50;4997500;28;20084;-61
2022/05/16 06:33:16;;;;;;;14.32;11.48;;;;;;;22.26;70.39;97331.84;5002328;28;20065;-67
2022/05/16 06:35:43;;;;;;;20.10;12.98;;;;;;;22.32;70.02;97324.44;5003167;28;20062;-60
2022/05/16 06:38:22;;;;;;;12.18;10.88;;;;;;;22.09;70.19;97318.97;5009074;28;20091;-71
2022/05/16 06:40:49;;;;;;;14.45;10.35;;;;;;;22.10;69.95;97329.00;4996976;28;20050;-64
2022/05/16 06:43:18;;;;;;;13.25;11.10;;;;;;;22.29;70.35;97325.31;5003788;28;20060;-66
2022/05/16 06:45:45;;;;;;;13.75;10.85;;;;;;;22.46;69.53;97321.25;5002670;28;20125;-68
2022/05/16 06:48:12;;;;;;;13.32;10.43;;;;;;;22.09;69.44;97265.34;5002797;28;20045;-67
2022/05/16 06:50:41;;;;;;;17.80;10.25;;;;;;;22.71;69.15;97322.66;5002657;28;20050;-66
2022/05/16 06:53:13;;;;;;;12.52;10.20;;;;;;;22.44;69.88;97315.25;4995318;28;20058;-65
2022/05/16 06:55:42;;;;;;;12.97;10.40;;;;;;;22.35;69.86;97326.38;5005011;28;20050;-64
2022/05/16 06:58:08;;;;;;;10.88;9.77;;;;;;;22.55;69.89;97329.13;5002382;28;20424;-67
2022/05/16 07:00:35;;;;;;;10.82;9.80;;;;;;;22.55;68.07;97300.09;5002446;28;20050;-64
2022/05/16 07:03:04;;;;;;;11.27;10.07;;;;;;;22.72;67.29;97321.41;5003502;28;20060;-63
2022/05/16 07:05:47;;;;;;;14.40;9.43;;;;;;;22.83;65.55;97313.47;5003595;28;20053;-63
2022/05/16 07:08:16;;;;;;;9.85;8.85;;;;;;;22.88;65.73;97304.44;5003586;28;20058;-65
2022/05/16 07:10:43;;;;;;;11.07;9.00;;;;;;;23.05;65.24;97314.47;5003683;28;20073;-63
2022/05/16 07:13:10;;;;;;;9.65;8.48;;;;;;;23.13;63.83;97293.25;5004345;28;20053;-63
2022/05/16 07:15:37;;;;;;;9.13;8.23;;;;;;;23.12;63.90;97257.75;5004119;28;20145;-68
2022/05/16 07:18:04;;;;;;;10.02;8.93;;;;;;;23.79;63.29;97313.13;5003811;28;20405;-64
2022/05/16 07:20:36;;;;;;;11.20;10.10;;;;;;;24.11;61.25;97317.81;5003760;28;20497;-67
2022/05/16 07:23:03;;;;;;;12.40;9.82;;;;;;;23.91;61.16;97315.19;5003438;28;20054;-68
2022/05/16 07:27:56;;;;;;;11.00;8.70;;;;;;;23.80;60.77;97252.47;5003452;28;20054;-63
2022/05/16 07:28:17;;;;;;;8.73;7.68;;;;;;;24.41;58.62;97312.34;5003561;28;20527;-63
2022/05/16 07:30:45;;;;;;;11.38;9.32;;;;;;;24.30;57.94;97265.81;5004068;28;20058;-68
2022/05/16 07:33:11;;;;;;;11.05;8.35;;;;;;;24.81;57.40;97316.28;5004129;28;20053;-68
2022/05/16 07:35:38;;;;;;;11.32;8.75;;;;;;;24.87;54.96;97286.09;5004727;28;20061;-64
2022/05/16 07:38:05;;;;;;;9.95;8.38;;;;;;;24.55;53.96;97286.38;5005749;28;20084;-63
2022/05/16 07:40:35;;;;;;;9.55;8.10;;;;;;;24.74;54.30;97276.03;5005221;28;20508;-65
2022/05/16 07:43:03;;;;;;;9.02;7.18;;;;;;;25.07;52.12;97289.41;5005737;28;20050;-69
2022/05/16 07:45:32;;;;;;;8.57;7.15;;;;;;;25.26;49.81;97302.50;5005992;28;20046;-69
2022/05/16 07:48:03;;;;;;;6.82;6.18;;;;;;;25.28;49.52;97305.66;5005530;28;20591;-68
2022/05/16 07:50:36;;;;;;;7.13;6.38;;;;;;;24.90;47.68;97233.38;5006473;28;20064;-69
2022/05/16 07:53:05;;;;;;;8.23;6.78;;;;;;;25.42;46.77;97292.25;5017133;28;20053;-65
2022/05/16 07:55:32;;;;;;;6.47;5.88;;;;;;;25.59;45.15;97291.56;5008959;28;20115;-64
2022/05/16 07:57:58;;;;;;;5.90;5.40;;;;;;;25.84;43.95;97291.41;5024943;28;20049;-60
2022/05/16 08:00:25;;;;;;;14.20;6.28;;;;;;;25.88;42.63;97291.25;5024458;28;20061;-59
2022/05/16 08:02:52;;;;;;;7.05;4.35;;;;;;;25.57;39.37;97290.44;5024447;28;20056;-62
2022/05/16 08:05:20;;;;;;;5.15;4.18;;;;;;;25.10;41.49;97282.06;5020676;28;20064;-62
2022/05/16 08:10:33;;;;;;;5.45;4.57;;;;;;;25.76;39.73;97260.91;5024826;28;20059;-60
2022/05/16 08:13:03;;;;;;;5.13;4.00;;;;;;;25.58;38.49;97198.38;5035443;28;20056;-57
2022/05/16 08:15:30;;;;;;;4.75;4.32;;;;;;;25.84;39.20;97219.63;5016849;28;20060;-59
2022/05/16 08:17:57;;;;;;;6.00;4.15;;;;;;;26.07;38.82;97261.69;5025348;28;20037;-63
2022/05/16 08:20:25;;;;;;;6.57;4.57;;;;;;;26.02;38.42;97239.63;5024686;28;20328;-57
2022/05/16 08:22:53;;;;;;;4.47;4.13;;;;;;;26.24;38.91;97282.94;5030911;28;20139;-55
2022/05/16 08:25:20;;;;;;;4.70;4.30;;;;;;;26.05;38.11;97289.78;5023824;28;20052;-56
2022/05/16 08:27:50;;;;;;;4.47;4.07;;;;;;;26.29;36.86;97282.28;5024836;28;20052;-63
2022/05/16 08:30:19;;;;;;;4.50;4.05;;;;;;;26.36;37.31;97282.00;5031413;28;20049;-57
2022/05/16 08:32:46;;;;;;;4.78;4.28;;;;;;;26.23;37.53;97261.44;5023950;28;20451;-56
2022/05/16 08:35:13;;;;;;;4.20;3.90;;;;;;;26.40;37.08;97282.63;5009953;28;20251;-56
2022/05/16 08:40:55;;;;;;;6.10;4.50;;;;;;;25.90;38.09;97283.06;5023854;28;20431;-62
2022/05/16 08:43:49;;;;;;;6.90;5.30;;;;;;;25.84;40.38;97284.91;5023452;28;20056;-65
2022/05/16 08:46:36;;;;;;;5.15;4.75;;;;;;;26.00;40.17;97277.00;5002156;28;20053;-58
2022/05/16 08:49:25;;;;;;;6.28;5.60;;;;;;;25.80;40.58;97228.28;5022623;28;20054;-64
2022/05/16 08:52:22;;;;;;;5.38;4.50;;;;;;;25.42;40.45;97195.78;5024250;28;20562;-60
2022/05/16 08:55:05;;;;;;;5.57;5.07;;;;;;;26.22;39.04;97223.75;5026446;28;20045;-62
2022/05/16 08:57:40;;;;;;;7.50;4.75;;;;;;;26.80;39.82;97276.91;5017765;28;20060;-59
2022/05/16 09:00:25;;;;;;;6.32;5.45;;;;;;;27.04;39.54;97261.63;5034520;28;20058;-59
2022/05/16 09:02:54;;;;;;;5.80;4.95;;;;;;;27.01;38.64;97265.41;5020765;28;20046;-61
2022/05/16 09:05:26;;;;;;;5.07;4.63;;;;;;;27.27;39.06;97266.69;5016013;28;20053;-60
2022/05/16 09:07:56;;;;;;;5.15;4.65;;;;;;;27.37;39.33;97271.09;5014397;28;20062;-61
2022/05/16 09:10:37;;;;;;;5.60;5.10;;;;;;;27.63;38.74;97266.63;5023909;28;20057;-60
2022/05/16 09:13:29;;;;;;;5.30;4.78;;;;;;;27.10;38.16;97262.56;5023669;28;20046;-58
2022/05/16 09:16:10;;;;;;;5.10;4.70;;;;;;;26.35;39.77;97247.13;5019901;28;20057;-64
2022/05/16 09:19:03;;;;;;;4.70;4.30;;;;;;;26.05;38.39;97150.66;5018626;28;20057;-58
2022/05/16 09:21:36;;;;;;;6.60;5.38;;;;;;;27.20;39.03;97243.44;5005333;28;20057;-60
2022/05/16 09:24:07;;;;;;;5.95;5.45;;;;;;;27.61;38.79;97248.44;5024746;28;20053;-63
2022/05/16 09:26:51;;;;;;;5.55;4.97;;;;;;;28.06;37.71;97242.59;5023649;28;20056;-58
2022/05/16 09:29:37;;;;;;;10.95;5.82;;;;;;;28.33;36.81;97227.47;5009945;28;20336;-64
2022/05/16 09:32:07;;;;;;;5.88;4.68;;;;;;;28.69;35.59;97235.81;5020094;28;20056;-62
2022/05/16 09:34:34;;;;;;;5.47;4.82;;;;;;;28.89;35.22;97235.97;5007014;28;20057;-60
2022/05/16 09:37:01;;;;;;;4.85;4.45;;;;;;;28.93;33.75;97230.84;5024430;28;20069;-59
2022/05/16 09:39:33;;;;;;;4.95;4.63;;;;;;;28.94;35.39;97238.16;5023734;28;20057;-62
2022/05/16 09:42:03;;;;;;;5.05;4.55;;;;;;;28.08;35.47;97201.00;5010647;28;20168;-57
2022/05/16 09:44:56;;;;;;;5.85;4.75;;;;;;;28.21;36.48;97232.09;5017167;28;20049;-59
2022/05/16 09:47:29;;;;;;;5.85;5.03;;;;;;;28.44;35.75;97227.72;5018502;28;20065;-57
2022/05/16 09:50:29;;;;;;;4.75;4.18;;;;;;;27.88;36.07;97220.69;5024079;28;20061;-62
2022/05/16 09:53:02;;;;;;;5.22;4.72;;;;;;;28.42;36.58;97213.16;5024210;28;20269;-57
2022/05/16 09:55:35;;;;;;;7.07;5.90;;;;;;;28.88;35.30;97217.28;5006387;28;20049;-61
2022/05/16 09:58:15;;;;;;;9.73;7.03;;;;;;;28.83;35.77;97215.91;5023824;28;20065;-60
2022/05/16 10:01:06;;;;;;;5.20;4.72;;;;;;;29.25;33.38;97215.69;5024195;28;20053;-61
2022/05/16 10:03:51;;;;;;;4.95;4.45;;;;;;;29.12;33.65;97209.47;5023247;28;20510;-65
2022/05/16 10:06:35;;;;;;;4.68;4.30;;;;;;;29.09;33.80;97199.03;5014788;28;20057;-60
2022/05/16 10:09:30;;;;;;;4.75;4.10;;;;;;;29.75;33.87;97205.97;5022565;28;20053;-64
2022/05/16 10:11:57;;;;;;;4.53;4.22;;;;;;;29.63;33.73;97154.84;5022754;28;20053;-65
2022/05/16 10:14:24;;;;;;;5.65;4.65;;;;;;;30.07;32.69;97159.22;5006194;28;20099;-57
2022/05/16 10:16:53;;;;;;;6.63;5.20;;;;;;;30.16;35.49;97184.81;5022444;28;20050;-60
2022/05/16 10:19:26;;;;;;;6.00;5.45;;;;;;;30.21;34.85;97181.28;5018448;28;20077;-54
2022/05/16 10:22:01;;;;;;;6.55;4.35;;;;;;;30.03;33.87;97175.81;5022709;28;20046;-61
2022/05/16 10:24:31;;;;;;;5.20;4.70;;;;;;;29.70;33.49;97181.00;5026658;28;20055;-55
2022/05/16 10:27:05;;;;;;;4.97;4.68;;;;;;;29.41;34.89;97187.47;5022173;28;20041;-65
2022/05/16 10:29:36;;;;;;;6.38;5.50;;;;;;;29.35;35.43;97182.94;5026783;28;20135;-60
2022/05/16 10:35:12;;;;;;;5.82;5.32;;;;;;;30.27;33.84;97162.13;5019571;28;20149;-57
2022/05/16 10:37:46;;;;;;;5.13;4.70;;;;;;;30.32;33.52;97161.44;5022739;28;20053;-58
2022/05/16 10:40:21;;;;;;;;;;;;;;;30.47;33.43;97159.31;5014263;28;20435;-65
2022/05/16 10:43:07;;;;;;;5.32;4.93;;;;;;;30.46;33.01;97152.00;5008853;28;19924;-57
2022/05/16 10:45:36;;;;;;;5.75;5.32;;;;;;;30.76;32.26;97146.97;5021153;28;20057;-63
2022/05/16 10:48:16;;;;;;;4.95;4.53;;;;;;;31.24;32.47;97152.94;5022134;28;20136;-57
2022/05/16 10:50:53;;;;;;;5.07;4.68;;;;;;;31.13;33.18;97147.88;5021564;28;20049;-62
2022/05/16 10:53:49;;;;;;;5.20;4.40;;;;;;;31.29;32.69;97146.47;5023276;28;20064;-62
2022/05/16 10:56:43;;;;;;;4.63;4.22;;;;;;;30.97;33.77;97144.84;5020934;28;20476;-56
2022/05/16 10:59:23;;;;;;;6.80;6.07;;;;;;;30.85;33.26;97147.59;5022237;28;20060;-62
2022/05/16 11:02:22;;;;;;;6.90;5.43;;;;;;;30.06;34.75;97134.00;5009493;28;20053;-57
2022/05/16 11:05:07;;;;;;;6.47;5.20;;;;;;;30.07;34.09;97136.38;5019182;28;20061;-58
2022/05/16 11:07:52;;;;;;;5.65;4.63;;;;;;;30.25;34.49;97133.28;5029655;28;20049;-64
2022/05/16 11:10:45;;;;;;;7.15;5.43;;;;;;;29.95;34.05;97150.97;5025773;28;20083;-57
2022/05/16 11:13:32;;;;;;;6.03;5.45;;;;;;;29.82;34.20;97131.31;5026287;28;20151;-62
2022/05/16 11:16:26;;;;;;;5.97;5.10;;;;;;;29.45;34.53;97135.88;5027358;28;20106;-60
2022/05/16 11:19:13;;;;;;;7.80;5.57;;;;;;;29.17;35.14;97131.75;5027207;28;20057;-60
2022/05/16 11:21:55;;;;;;;7.35;5.63;;;;;;;28.94;35.84;97129.75;5024675;28;20046;-56
2022/05/16 11:24:50;;;;;;;7.75;4.82;;;;;;;28.49;36.61;97087.38;5022619;28;20049;-59
2022/05/16 11:27:37;;;;;;;6.00;5.18;;;;;;;27.16;39.11;97129.78;5025666;28;20055;-56
2022/05/16 11:30:25;;;;;;;5.45;4.82;;;;;;;26.82;40.23;97137.91;5025897;28;20443;-57
2022/05/16 11:33:01;;;;;;;7.45;4.85;;;;;;;26.91;39.78;97144.38;5025521;28;20046;-62
2022/05/16 11:35:42;;;;;;;8.43;4.63;;;;;;;26.59;40.84;97136.47;5025091;28;20049;-60
2022/05/16 11:38:38;;;;;;;6.45;4.72;;;;;;;25.92;45.10;97138.59;5025842;28;20065;-61
2022/05/16 11:41:32;;;;;;;10.00;5.05;;;;;;;23.74;55.19;97164.53;5024543;28;20504;-56
2022/05/16 11:44:32;;;;;;;10.43;6.57;;;;;;;22.45;64.26;97170.03;5025602;28;20052;-57
2022/05/16 11:47:14;;;;;;;7.80;5.60;;;;;;;21.61;62.19;97166.56;5022166;28;20065;-58
2022/05/16 11:50:36;;;;;;;9.15;6.38;;;;;;;21.50;63.01;97149.09;5024857;28;20045;-63
2022/05/16 11:53:35;;;;;;;10.00;6.00;;;;;;;22.15;61.90;97139.41;5019851;28;20053;-60
2022/05/16 12:01:37;;;;;;;13.77;6.43;;;;;;;23.84;60.58;97134.28;5025039;28;20062;-56
2022/05/16 12:04:13;;;;;;;10.88;6.47;;;;;;;24.50;58.38;97147.38;5025399;28;20136;-55
2022/05/16 12:06:48;;;;;;;7.75;5.25;;;;;;;24.93;56.56;97147.41;5000417;28;20077;-56
2022/05/16 12:09:19;;;;;;;12.75;6.30;;;;;;;25.47;54.92;97147.72;4986742;28;20054;-62
2022/05/16 12:12:11;;;;;;;11.60;5.68;;;;;;;25.82;53.63;97146.28;5004666;28;20325;-62
2022/05/16 12:14:39;;;;;;;10.05;5.57;;;;;;;26.37;54.17;97135.84;5004453;28;20530;-54